createdAt,value
2018-03-24T00:00:33.560Z,6.3
2018-03-24T00:01:43.244Z,6.31
2018-03-24T00:02:52.080Z,6.31
2018-03-24T00:04:01.466Z,6.28
2018-03-24T00:05:10.296Z,6.28
2018-03-24T00:06:19.126Z,6.17
2018-03-24T00:07:28.288Z,6.18
2018-03-24T00:08:37.120Z,6.3
2018-03-24T00:09:46.228Z,6.25
2018-03-24T00:10:55.060Z,6.34
2018-03-24T00:12:03.895Z,6.27
2018-03-24T00:13:13.052Z,6.21
2018-03-24T00:14:21.885Z,6.28
2018-03-24T00:15:30.993Z,6.3
2018-03-24T00:16:40.106Z,6.11
2018-03-24T00:17:48.941Z,6.17
2018-03-24T00:18:58.048Z,6.28
2018-03-24T00:20:06.876Z,6.14
2018-03-24T00:21:16.536Z,6.14
2018-03-24T00:22:25.369Z,6.08
2018-03-24T00:23:34.197Z,6.12
2018-03-24T00:24:43.227Z,6.12
2018-03-24T00:25:52.057Z,6.11
2018-03-24T00:27:00.887Z,6.27
2018-03-24T00:28:09.718Z,6.19
2018-03-24T00:29:18.551Z,6.21
2018-03-24T00:30:27.380Z,6.28
2018-03-24T00:31:36.214Z,6.3
2018-03-24T00:32:45.321Z,6.22
2018-03-24T00:33:54.443Z,6.31
2018-03-24T00:35:03.270Z,6.3
2018-03-24T00:36:12.250Z,6.25
2018-03-24T00:37:21.081Z,6.25
2018-03-24T00:38:29.911Z,6.33
2018-03-24T00:39:38.739Z,6.22
2018-03-24T00:40:47.569Z,6.27
2018-03-24T00:41:56.783Z,6.22
2018-03-24T00:43:05.613Z,6.22
2018-03-24T00:44:14.720Z,6.25
2018-03-24T00:45:23.549Z,6.25
2018-03-24T00:46:32.383Z,6.22
2018-03-24T00:47:41.644Z,6.27
2018-03-24T00:48:50.475Z,6.22
2018-03-24T00:49:59.307Z,6.21
2018-03-24T00:51:08.137Z,6.33
2018-03-24T00:52:17.243Z,6.21
2018-03-24T00:53:26.177Z,6.25
2018-03-24T00:54:35.011Z,6.21
2018-03-24T00:55:44.128Z,6.34
2018-03-24T00:56:52.964Z,6.33
2018-03-24T00:58:01.790Z,6.3
2018-03-24T00:59:10.722Z,6.3
2018-03-24T01:00:19.558Z,6.28
2018-03-24T01:01:28.668Z,6.31
2018-03-24T01:02:37.496Z,6.31
2018-03-24T01:03:46.328Z,6.28
2018-03-24T01:04:55.261Z,6.27
2018-03-24T01:06:04.369Z,6.27
2018-03-24T01:07:13.204Z,6.31
2018-03-24T01:08:22.033Z,6.36
2018-03-24T01:09:30.864Z,6.38
2018-03-24T01:10:39.796Z,6.33
2018-03-24T01:11:48.631Z,6.4
2018-03-24T01:12:57.464Z,6.34
2018-03-24T01:14:06.296Z,6.38
2018-03-24T01:15:15.402Z,6.36
2018-03-24T01:16:24.382Z,6.36
2018-03-24T01:17:33.212Z,6.43
2018-03-24T01:18:42.318Z,6.38
2018-03-24T01:19:51.152Z,6.3
2018-03-24T01:21:00.263Z,6.4
2018-03-24T01:22:09.677Z,6.36
2018-03-24T01:23:18.503Z,6.41
2018-03-24T01:24:27.334Z,6.33
2018-03-24T01:25:36.206Z,6.33
2018-03-24T01:26:44.999Z,6.4
2018-03-24T01:27:54.260Z,6.4
2018-03-24T01:29:03.091Z,6.37
2018-03-24T01:30:11.922Z,6.31
2018-03-24T01:31:21.039Z,6.27
2018-03-24T01:32:30.433Z,6.37
2018-03-24T01:33:39.263Z,6.36
2018-03-24T01:34:48.375Z,6.36
2018-03-24T01:35:57.762Z,6.36
2018-03-24T01:37:06.596Z,6.37
2018-03-24T01:38:15.425Z,6.31
2018-03-24T01:39:24.310Z,6.37
2018-03-24T01:40:33.142Z,6.38
2018-03-24T01:41:41.974Z,6.34
2018-03-24T01:42:50.808Z,6.27
2018-03-24T01:43:59.640Z,6.3
2018-03-24T01:45:08.799Z,6.31
2018-03-24T01:46:18.197Z,6.37
2018-03-24T01:47:27.028Z,6.38
2018-03-24T01:48:35.860Z,6.37
2018-03-24T01:49:44.695Z,6.34
2018-03-24T01:50:53.528Z,6.33
2018-03-24T01:52:02.360Z,6.37
2018-03-24T01:53:11.192Z,6.25
2018-03-24T01:54:20.021Z,6.31
2018-03-24T01:55:28.856Z,6.34
2018-03-24T01:56:38.260Z,6.28
2018-03-24T01:57:47.095Z,6.34
2018-03-24T01:58:55.921Z,6.37
2018-03-24T02:00:04.749Z,6.34
2018-03-24T02:01:13.579Z,6.31
2018-03-24T02:02:22.567Z,6.31
2018-03-24T02:03:31.400Z,6.33
2018-03-24T02:04:40.227Z,6.3
2018-03-24T02:05:49.334Z,6.3
2018-03-24T02:06:58.165Z,6.3
2018-03-24T02:08:07.096Z,6.22
2018-03-24T02:09:15.926Z,6.27
2018-03-24T02:10:24.759Z,6.3
2018-03-24T02:11:33.790Z,6.3
2018-03-24T02:12:42.621Z,6.34
2018-03-24T02:13:51.507Z,6.27
2018-03-24T02:15:00.340Z,6.3
2018-03-24T02:16:09.179Z,6.28
2018-03-24T02:17:18.011Z,6.3
2018-03-24T02:18:26.847Z,6.28
2018-03-24T02:19:35.724Z,6.33
2018-03-24T02:20:44.557Z,6.31
2018-03-24T02:21:53.389Z,6.3
2018-03-24T02:23:02.217Z,6.3
2018-03-24T02:24:11.047Z,6.27
2018-03-24T02:25:20.029Z,6.3
2018-03-24T02:26:28.865Z,6.33
2018-03-24T02:27:37.695Z,6.25
2018-03-24T02:28:46.528Z,6.34
2018-03-24T02:29:55.361Z,6.27
2018-03-24T02:31:04.192Z,6.34
2018-03-24T02:32:13.023Z,6.28
2018-03-24T02:33:22.142Z,6.33
2018-03-24T02:34:31.252Z,6.33
2018-03-24T02:35:40.086Z,6.33
2018-03-24T02:36:48.969Z,6.21
2018-03-24T02:37:58.076Z,6.3
2018-03-24T02:39:07.186Z,6.21
2018-03-24T02:40:16.019Z,6.33
2018-03-24T02:41:24.852Z,6.34
2018-03-24T02:42:33.784Z,6.27
2018-03-24T02:43:42.617Z,6.31
2018-03-24T02:44:51.451Z,6.31
2018-03-24T02:46:00.283Z,6.25
2018-03-24T02:47:09.116Z,6.36
2018-03-24T02:48:18.245Z,6.31
2018-03-24T02:49:27.077Z,6.28
2018-03-24T02:50:35.916Z,6.31
2018-03-24T02:51:45.030Z,6.31
2018-03-24T02:52:53.864Z,6.28
2018-03-24T02:54:02.798Z,6.37
2018-03-24T02:55:11.625Z,6.27
2018-03-24T02:56:20.454Z,6.3
2018-03-24T02:57:29.286Z,6.27
2018-03-24T02:58:38.396Z,6.31
2018-03-24T02:59:47.327Z,6.36
2018-03-24T03:00:56.160Z,6.28
2018-03-24T03:02:04.993Z,6.28
2018-03-24T03:03:13.826Z,6.33
2018-03-24T03:04:22.658Z,6.34
2018-03-24T03:05:31.867Z,6.3
2018-03-24T03:06:40.980Z,6.34
2018-03-24T03:07:50.092Z,6.28
2018-03-24T03:08:58.923Z,6.3
2018-03-24T03:10:07.753Z,6.28
2018-03-24T03:11:16.635Z,6.31
2018-03-24T03:12:25.464Z,6.28
2018-03-24T03:13:34.296Z,6.3
2018-03-24T03:14:43.128Z,6.31
2018-03-24T03:15:51.961Z,6.31
2018-03-24T03:17:00.947Z,6.28
2018-03-24T03:18:09.782Z,6.36
2018-03-24T03:19:18.888Z,6.3
2018-03-24T03:20:27.719Z,6.41
2018-03-24T03:21:36.552Z,6.36
2018-03-24T03:22:45.536Z,6.31
2018-03-24T03:23:54.371Z,6.3
2018-03-24T03:25:03.203Z,6.3
2018-03-24T03:26:12.592Z,6.25
2018-03-24T03:27:21.422Z,6.25
2018-03-24T03:28:30.318Z,6.43
2018-03-24T03:29:39.151Z,6.28
2018-03-24T03:30:47.987Z,6.31
2018-03-24T03:31:56.822Z,6.33
2018-03-24T03:33:05.991Z,6.36
2018-03-24T03:34:14.874Z,6.33
2018-03-24T03:35:23.708Z,6.31
2018-03-24T03:36:32.543Z,6.3
2018-03-24T03:37:41.375Z,6.34
2018-03-24T03:38:50.809Z,6.22
2018-03-24T03:39:59.790Z,6.28
2018-03-24T03:41:08.623Z,6.33
2018-03-24T03:42:17.455Z,6.34
2018-03-24T03:43:26.288Z,6.28
2018-03-24T03:44:35.172Z,6.33
2018-03-24T03:45:44.001Z,6.36
2018-03-24T03:46:52.832Z,6.28
2018-03-24T03:48:01.938Z,6.28
2018-03-24T03:49:10.766Z,6.31
2018-03-24T03:50:19.880Z,6.27
2018-03-24T03:51:28.959Z,6.3
2018-03-24T03:52:37.794Z,6.3
2018-03-24T03:53:46.626Z,6.38
2018-03-24T03:54:55.456Z,6.28
2018-03-24T03:56:04.286Z,6.28
2018-03-24T03:57:13.215Z,6.27
2018-03-24T03:58:22.323Z,6.28
2018-03-24T03:59:31.152Z,6.3
2018-03-24T04:00:40.258Z,6.27
2018-03-24T04:01:49.361Z,6.34
2018-03-24T04:02:58.243Z,6.28
2018-03-24T04:04:07.076Z,6.27
2018-03-24T04:05:15.906Z,6.3
2018-03-24T04:06:24.735Z,6.28
2018-03-24T04:07:33.565Z,6.27
2018-03-24T04:08:42.672Z,6.3
2018-03-24T04:09:51.508Z,6.22
2018-03-24T04:11:00.621Z,6.22
2018-03-24T04:12:09.453Z,6.27
2018-03-24T04:13:18.281Z,6.28
2018-03-24T04:14:27.115Z,6.34
2018-03-24T04:15:35.946Z,6.3
2018-03-24T04:16:44.777Z,6.28
2018-03-24T04:17:53.608Z,6.3
2018-03-24T04:19:02.447Z,6.28
2018-03-24T04:20:11.809Z,6.28
2018-03-24T04:21:20.915Z,6.33
2018-03-24T04:22:29.742Z,6.31
2018-03-24T04:23:38.588Z,6.31
2018-03-24T04:24:47.408Z,6.21
2018-03-24T04:25:56.240Z,6.18
2018-03-24T04:27:05.071Z,6.31
2018-03-24T04:28:13.899Z,6.22
2018-03-24T04:29:22.728Z,6.34
2018-03-24T04:30:31.560Z,6.3
2018-03-24T04:31:40.389Z,6.36
2018-03-24T04:32:49.221Z,6.33
2018-03-24T04:33:58.055Z,6.31
2018-03-24T04:35:06.884Z,6.31
2018-03-24T04:36:15.714Z,6.28
2018-03-24T04:37:24.644Z,6.4
2018-03-24T04:38:33.765Z,6.34
2018-03-24T04:39:42.601Z,6.3
2018-03-24T04:40:51.428Z,6.34
2018-03-24T04:42:00.268Z,6.33
2018-03-24T04:43:09.200Z,6.21
2018-03-24T04:44:18.034Z,6.27
2018-03-24T04:45:26.866Z,6.18
2018-03-24T04:46:35.699Z,6.21
2018-03-24T04:47:44.529Z,6.31
2018-03-24T04:48:53.759Z,6.3
2018-03-24T04:50:02.590Z,6.15
2018-03-24T04:51:11.421Z,6.3
2018-03-24T04:52:20.253Z,6.22
2018-03-24T04:53:29.083Z,6.22
2018-03-24T04:54:37.913Z,6.31
2018-03-24T04:55:46.745Z,6.22
2018-03-24T04:56:55.576Z,6.3
2018-03-24T04:58:04.410Z,6.34
2018-03-24T04:59:13.254Z,6.27
2018-03-24T05:00:22.325Z,6.25
2018-03-24T05:01:31.157Z,6.25
2018-03-24T05:02:39.989Z,6.19
2018-03-24T05:03:48.815Z,6.27
2018-03-24T05:04:57.645Z,6.33
2018-03-24T05:06:06.565Z,6.22
2018-03-24T05:07:15.360Z,6.27
2018-03-24T05:08:24.196Z,6.27
2018-03-24T05:09:33.302Z,6.21
2018-03-24T05:10:42.142Z,6.19
2018-03-24T05:11:51.257Z,6.21
2018-03-24T05:13:00.088Z,6.28
2018-03-24T05:14:08.917Z,6.22
2018-03-24T05:15:18.027Z,6.22
2018-03-24T05:16:26.861Z,6.25
2018-03-24T05:17:35.844Z,6.27
2018-03-24T05:18:44.676Z,6.12
2018-03-24T05:19:53.503Z,6.08
2018-03-24T05:21:02.337Z,6.11
2018-03-24T05:22:11.442Z,6.11
2018-03-24T05:23:20.274Z,6.15
2018-03-24T05:24:29.111Z,6.04
2018-03-24T05:25:38.220Z,6.06
2018-03-24T05:26:47.055Z,6.12
2018-03-24T05:27:56.436Z,6.04
2018-03-24T05:29:05.265Z,6.11
2018-03-24T05:30:14.095Z,6.08
2018-03-24T05:31:22.925Z,6.14
2018-03-24T05:32:31.757Z,6.18
2018-03-24T05:33:40.588Z,6.28
2018-03-24T05:34:49.719Z,6.22
2018-03-24T05:35:58.550Z,6.19
2018-03-24T05:37:07.379Z,6.22
2018-03-24T05:38:16.211Z,6.22
2018-03-24T05:39:25.042Z,6.22
2018-03-24T05:40:34.171Z,6.18
2018-03-24T05:41:43.003Z,6.25
2018-03-24T05:42:52.115Z,6.25
2018-03-24T05:44:00.947Z,6.3
2018-03-24T05:45:10.053Z,6.28
2018-03-24T05:46:18.886Z,6.27
2018-03-24T05:47:27.716Z,6.28
2018-03-24T05:48:36.635Z,6.31
2018-03-24T05:49:45.377Z,6.22
2018-03-24T05:50:54.208Z,6.28
2018-03-24T05:52:03.042Z,6.28
2018-03-24T05:53:11.871Z,6.28
2018-03-24T05:54:20.703Z,6.21
2018-03-24T05:55:29.534Z,6.25
2018-03-24T05:56:38.365Z,6.22
2018-03-24T05:57:47.198Z,6.22
2018-03-24T05:58:56.031Z,6.28
2018-03-24T06:00:04.862Z,6.27
2018-03-24T06:01:13.974Z,6.28
2018-03-24T06:02:22.803Z,6.19
2018-03-24T06:03:31.935Z,6.25
2018-03-24T06:04:40.765Z,6.21
2018-03-24T06:05:49.593Z,6.28
2018-03-24T06:06:58.427Z,6.21
2018-03-24T06:08:07.257Z,6.27
2018-03-24T06:09:16.462Z,6.22
2018-03-24T06:10:25.291Z,6.28
2018-03-24T06:11:34.126Z,6.27
2018-03-24T06:12:43.230Z,6.21
2018-03-24T06:13:52.069Z,6.27
2018-03-24T06:15:00.948Z,6.27
2018-03-24T06:16:09.779Z,6.22
2018-03-24T06:17:18.609Z,6.27
2018-03-24T06:18:27.439Z,6.31
2018-03-24T06:19:36.272Z,6.22
2018-03-24T06:20:45.358Z,6.31
2018-03-24T06:21:54.184Z,6.33
2018-03-24T06:23:03.016Z,6.3
2018-03-24T06:24:11.845Z,6.25
2018-03-24T06:25:20.677Z,6.21
2018-03-24T06:26:29.661Z,6.3
2018-03-24T06:27:38.492Z,6.3
2018-03-24T06:28:47.322Z,6.33
2018-03-24T06:29:56.157Z,6.25
2018-03-24T06:31:04.984Z,6.3
2018-03-24T06:32:14.392Z,6.25
2018-03-24T06:33:23.224Z,6.33
2018-03-24T06:34:32.056Z,6.3
2018-03-24T06:35:41.162Z,6.36
2018-03-24T06:36:49.995Z,6.37
2018-03-24T06:37:58.928Z,6.41
2018-03-24T06:39:08.087Z,6.36
2018-03-24T06:40:16.915Z,6.38
2018-03-24T06:41:25.747Z,6.37
2018-03-24T06:42:34.579Z,6.37
2018-03-24T06:43:43.562Z,6.37
2018-03-24T06:44:52.425Z,6.4
2018-03-24T06:46:01.225Z,6.37
2018-03-24T06:47:10.059Z,6.37
2018-03-24T06:48:18.891Z,6.36
2018-03-24T06:49:27.774Z,6.41
2018-03-24T06:50:36.605Z,6.38
2018-03-24T06:51:45.435Z,6.38
2018-03-24T06:52:54.547Z,6.48
2018-03-24T06:54:03.379Z,6.46
2018-03-24T06:55:12.511Z,6.52
2018-03-24T06:56:21.626Z,6.55
2018-03-24T06:57:30.458Z,6.51
2018-03-24T06:58:39.292Z,6.62
2018-03-24T06:59:48.123Z,6.59
2018-03-24T07:00:57.287Z,6.66
2018-03-24T07:02:06.119Z,6.66
2018-03-24T07:03:14.952Z,6.64
2018-03-24T07:04:23.784Z,6.58
2018-03-24T07:05:32.617Z,6.62
2018-03-24T07:06:41.878Z,6.61
2018-03-24T07:07:50.711Z,6.62
2018-03-24T07:08:59.592Z,6.59
2018-03-24T07:10:08.701Z,6.64
2018-03-24T07:11:17.537Z,6.62
2018-03-24T07:12:26.642Z,6.73
2018-03-24T07:13:35.473Z,6.69
2018-03-24T07:14:44.305Z,6.7
2018-03-24T07:15:53.139Z,6.67
2018-03-24T07:17:02.255Z,6.61
2018-03-24T07:18:11.511Z,6.73
2018-03-24T07:19:20.345Z,6.7
2018-03-24T07:20:29.179Z,6.74
2018-03-24T07:21:38.012Z,6.7
2018-03-24T07:22:46.842Z,6.69
2018-03-24T07:23:55.777Z,6.8
2018-03-24T07:25:04.611Z,6.87
2018-03-24T07:26:13.444Z,6.88
2018-03-24T07:27:22.551Z,6.87
2018-03-24T07:28:31.380Z,6.91
2018-03-24T07:29:40.314Z,6.85
2018-03-24T07:30:49.147Z,6.98
2018-03-24T07:31:57.980Z,6.91
2018-03-24T07:33:06.813Z,6.92
2018-03-24T07:34:15.646Z,6.99
2018-03-24T07:35:24.630Z,6.99
2018-03-24T07:36:33.463Z,7.03
2018-03-24T07:37:42.295Z,7.1
2018-03-24T07:38:51.128Z,7.13
2018-03-24T07:39:59.962Z,7.16
2018-03-24T07:41:08.894Z,7.23
2018-03-24T07:42:17.725Z,7.16
2018-03-24T07:43:26.557Z,7.03
2018-03-24T07:44:35.387Z,7.1
2018-03-24T07:45:44.219Z,7.09
2018-03-24T07:46:53.154Z,7.09
2018-03-24T07:48:01.987Z,7.02
2018-03-24T07:49:10.821Z,7.07
2018-03-24T07:50:19.657Z,7.13
2018-03-24T07:51:28.490Z,7.12
2018-03-24T07:52:37.625Z,7.05
2018-03-24T07:53:46.471Z,7.15
2018-03-24T07:54:55.296Z,7.24
2018-03-24T07:56:04.681Z,7.2
2018-03-24T07:57:13.799Z,7.32
2018-03-24T07:58:22.622Z,7.28
2018-03-24T07:59:31.454Z,7.27
2018-03-24T08:00:40.289Z,7.31
2018-03-24T08:01:49.126Z,7.34
2018-03-24T08:02:57.965Z,7.42
2018-03-24T08:04:06.846Z,7.45
2018-03-24T08:05:15.680Z,7.46
2018-03-24T08:06:24.514Z,7.46
2018-03-24T08:07:33.346Z,7.49
2018-03-24T08:08:42.180Z,7.5
2018-03-24T08:09:51.442Z,7.58
2018-03-24T08:11:00.276Z,7.49
2018-03-24T08:12:09.383Z,7.57
2018-03-24T08:13:18.215Z,7.48
2018-03-24T08:14:27.321Z,7.45
2018-03-24T08:15:36.206Z,7.57
2018-03-24T08:16:45.040Z,7.58
2018-03-24T08:17:53.871Z,7.63
2018-03-24T08:19:02.706Z,7.77
2018-03-24T08:20:11.543Z,7.64
2018-03-24T08:21:20.370Z,7.69
2018-03-24T08:22:29.479Z,7.69
2018-03-24T08:23:38.589Z,7.67
2018-03-24T08:24:47.703Z,7.82
2018-03-24T08:25:56.536Z,7.85
2018-03-24T08:27:05.527Z,7.85
2018-03-24T08:28:14.363Z,7.8
2018-03-24T08:29:23.199Z,7.89
2018-03-24T08:30:32.030Z,7.89
2018-03-24T08:31:40.871Z,7.9
2018-03-24T08:32:49.754Z,7.85
2018-03-24T08:33:58.873Z,8.01
2018-03-24T08:35:07.711Z,7.98
2018-03-24T08:36:16.540Z,8.02
2018-03-24T08:37:25.376Z,8.02
2018-03-24T08:38:34.837Z,8.05
2018-03-24T08:39:43.674Z,8.18
2018-03-24T08:40:52.785Z,8.11
2018-03-24T08:42:01.621Z,8.07
2018-03-24T08:43:10.452Z,7.98
2018-03-24T08:44:19.568Z,8.1
2018-03-24T08:45:28.402Z,8.05
2018-03-24T08:46:37.237Z,8.07
2018-03-24T08:47:46.072Z,8.11
2018-03-24T08:48:54.903Z,8.12
2018-03-24T08:50:03.868Z,8.22
2018-03-24T08:51:12.671Z,8.33
2018-03-24T08:52:21.503Z,8.34
2018-03-24T08:53:30.336Z,8.33
2018-03-24T08:54:39.466Z,8.44
2018-03-24T08:55:48.349Z,8.41
2018-03-24T08:56:57.187Z,8.4
2018-03-24T08:58:06.016Z,8.38
2018-03-24T08:59:14.860Z,8.33
2018-03-24T09:00:23.695Z,8.38
2018-03-24T09:01:32.683Z,8.41
2018-03-24T09:02:41.518Z,8.33
2018-03-24T09:03:50.357Z,8.38
2018-03-24T09:04:59.190Z,8.58
2018-03-24T09:06:08.026Z,8.47
2018-03-24T09:07:17.539Z,8.52
2018-03-24T09:08:26.372Z,8.4
2018-03-24T09:09:35.210Z,8.55
2018-03-24T09:10:44.045Z,8.59
2018-03-24T09:11:52.881Z,8.56
2018-03-24T09:13:02.120Z,8.58
2018-03-24T09:14:10.953Z,8.63
2018-03-24T09:15:19.787Z,8.63
2018-03-24T09:16:28.622Z,8.68
2018-03-24T09:17:37.460Z,8.65
2018-03-24T09:18:46.442Z,8.71
2018-03-24T09:19:55.282Z,8.73
2018-03-24T09:21:04.416Z,8.68
2018-03-24T09:22:13.606Z,8.79
2018-03-24T09:23:22.369Z,8.73
2018-03-24T09:24:31.304Z,8.79
2018-03-24T09:25:40.139Z,8.76
2018-03-24T09:26:48.974Z,8.84
2018-03-24T09:27:57.809Z,8.84
2018-03-24T09:29:06.646Z,8.79
2018-03-24T09:30:15.903Z,8.94
2018-03-24T09:31:24.739Z,8.86
2018-03-24T09:32:33.572Z,8.89
2018-03-24T09:33:42.687Z,8.84
2018-03-24T09:34:51.521Z,8.99
2018-03-24T09:36:00.759Z,9.04
2018-03-24T09:37:09.594Z,9.14
2018-03-24T09:38:18.709Z,9.2
2018-03-24T09:39:27.820Z,9.15
2018-03-24T09:40:36.656Z,9.2
2018-03-24T09:41:45.918Z,9.24
2018-03-24T09:42:54.751Z,9.28
2018-03-24T09:44:03.586Z,9.23
2018-03-24T09:45:12.418Z,9.26
2018-03-24T09:46:21.252Z,9.26
2018-03-24T09:47:30.284Z,9.32
2018-03-24T09:48:39.070Z,9.38
2018-03-24T09:49:47.908Z,9.36
2018-03-24T09:50:56.741Z,9.39
2018-03-24T09:52:05.576Z,9.42
2018-03-24T09:53:14.563Z,9.5
2018-03-24T09:54:23.403Z,9.58
2018-03-24T09:55:32.236Z,9.5
2018-03-24T09:56:41.070Z,9.53
2018-03-24T09:57:49.908Z,9.64
2018-03-24T09:58:58.796Z,9.68
2018-03-24T10:00:07.904Z,9.69
2018-03-24T10:01:16.741Z,9.69
2018-03-24T10:02:25.577Z,9.69
2018-03-24T10:03:34.412Z,9.6
2018-03-24T10:04:43.248Z,9.75
2018-03-24T10:05:52.082Z,9.78
2018-03-24T10:07:00.920Z,9.76
2018-03-24T10:08:09.760Z,9.83
2018-03-24T10:09:18.873Z,9.79
2018-03-24T10:10:27.908Z,9.89
2018-03-24T10:11:36.744Z,9.96
2018-03-24T10:12:45.586Z,9.97
2018-03-24T10:13:54.420Z,10.09
2018-03-24T10:15:03.256Z,9.9
2018-03-24T10:16:12.295Z,10.09
2018-03-24T10:17:21.130Z,10.12
2018-03-24T10:18:29.966Z,10.15
2018-03-24T10:19:38.805Z,10.2
2018-03-24T10:20:47.640Z,10.07
2018-03-24T10:21:56.476Z,10.11
2018-03-24T10:23:05.313Z,10.23
2018-03-24T10:24:14.149Z,10.32
2018-03-24T10:25:22.990Z,10.38
2018-03-24T10:26:31.829Z,10.42
2018-03-24T10:27:40.763Z,10.55
2018-03-24T10:28:49.612Z,10.63
2018-03-24T10:29:58.434Z,10.61
2018-03-24T10:31:07.270Z,10.61
2018-03-24T10:32:16.108Z,10.68
2018-03-24T10:33:25.095Z,10.73
2018-03-24T10:34:33.941Z,10.71
2018-03-24T10:35:42.773Z,10.64
2018-03-24T10:36:51.609Z,10.71
2018-03-24T10:38:00.447Z,10.61
2018-03-24T10:39:09.346Z,10.41
2018-03-24T10:40:18.171Z,10.52
2018-03-24T10:41:27.367Z,10.51
2018-03-24T10:42:36.173Z,10.47
2018-03-24T10:43:45.011Z,10.59
2018-03-24T10:44:54.237Z,10.76
2018-03-24T10:46:03.071Z,10.94
2018-03-24T10:47:11.907Z,10.89
2018-03-24T10:48:20.743Z,10.91
2018-03-24T10:49:29.582Z,10.94
2018-03-24T10:50:38.573Z,11.03
2018-03-24T10:51:47.683Z,11
2018-03-24T10:52:56.518Z,11.04
2018-03-24T10:54:05.358Z,11.09
2018-03-24T10:55:14.193Z,11.11
2018-03-24T10:56:23.607Z,11.25
2018-03-24T10:57:32.719Z,11.21
2018-03-24T10:58:41.554Z,11.09
2018-03-24T10:59:50.394Z,10.99
2018-03-24T11:00:59.230Z,11.07
2018-03-24T11:02:08.167Z,11.17
2018-03-24T11:03:17.002Z,11.27
2018-03-24T11:04:25.838Z,11.24
2018-03-24T11:05:34.674Z,11.11
2018-03-24T11:06:43.514Z,11.09
2018-03-24T11:07:52.877Z,11.02
2018-03-24T11:09:01.711Z,11.11
2018-03-24T11:10:10.553Z,11.15
2018-03-24T11:11:19.406Z,11.24
2018-03-24T11:12:28.518Z,11.29
2018-03-24T11:13:37.355Z,11.37
2018-03-24T11:14:46.194Z,11.43
2018-03-24T11:15:55.036Z,11.49
2018-03-24T11:17:03.866Z,11.54
2018-03-24T11:18:12.701Z,11.51
2018-03-24T11:19:21.587Z,11.42
2018-03-24T11:20:30.427Z,11.49
2018-03-24T11:21:39.264Z,11.49
2018-03-24T11:22:48.380Z,11.42
2018-03-24T11:23:57.216Z,11.44
2018-03-24T11:25:06.053Z,11.42
2018-03-24T11:26:14.889Z,11.33
2018-03-24T11:27:23.724Z,11.29
2018-03-24T11:28:32.561Z,11.27
2018-03-24T11:29:41.400Z,11.36
2018-03-24T11:30:50.289Z,11.37
2018-03-24T11:31:59.126Z,11.42
2018-03-24T11:33:08.253Z,11.37
2018-03-24T11:34:17.080Z,11.32
2018-03-24T11:35:26.192Z,11.43
2018-03-24T11:36:35.230Z,11.47
2018-03-24T11:37:44.067Z,11.44
2018-03-24T11:38:53.221Z,11.49
2018-03-24T11:40:02.051Z,11.51
2018-03-24T11:41:10.889Z,11.46
2018-03-24T11:42:19.831Z,11.43
2018-03-24T11:43:28.669Z,11.52
2018-03-24T11:44:37.506Z,11.57
2018-03-24T11:45:46.346Z,11.58
2018-03-24T11:46:55.183Z,11.54
2018-03-24T11:48:04.169Z,11.52
2018-03-24T11:49:13.008Z,11.47
2018-03-24T11:50:21.842Z,11.46
2018-03-24T11:51:30.683Z,11.33
2018-03-24T11:52:39.520Z,11.22
2018-03-24T11:53:48.681Z,11.22
2018-03-24T11:54:57.518Z,11.33
2018-03-24T11:56:06.359Z,11.43
2018-03-24T11:57:15.468Z,11.46
2018-03-24T11:58:24.310Z,11.46
2018-03-24T11:59:33.152Z,11.51
2018-03-24T12:00:41.984Z,11.51
2018-03-24T12:01:50.830Z,11.27
2018-03-24T12:02:59.657Z,11.27
2018-03-24T12:04:08.497Z,11.28
2018-03-24T12:05:17.436Z,11.19
2018-03-24T12:06:26.549Z,11.18
2018-03-24T12:07:35.385Z,11.22
2018-03-24T12:08:44.223Z,11.09
2018-03-24T12:09:53.060Z,11.17
2018-03-24T12:11:02.272Z,11.21
2018-03-24T12:12:11.109Z,11.27
2018-03-24T12:13:19.944Z,11.1
2018-03-24T12:14:28.781Z,11.17
2018-03-24T12:15:37.618Z,11.03
2018-03-24T12:16:46.565Z,10.97
2018-03-24T12:17:55.403Z,11.03
2018-03-24T12:19:04.240Z,11.03
2018-03-24T12:20:13.357Z,11.06
2018-03-24T12:21:22.464Z,11.02
2018-03-24T12:22:31.399Z,11.09
2018-03-24T12:23:40.237Z,11.18
2018-03-24T12:24:49.073Z,11.15
2018-03-24T12:25:57.908Z,11.03
2018-03-24T12:27:06.748Z,11.09
2018-03-24T12:28:15.582Z,11.1
2018-03-24T12:29:24.693Z,11.11
2018-03-24T12:30:33.533Z,11.18
2018-03-24T12:31:42.371Z,11.14
2018-03-24T12:32:51.206Z,11.19
2018-03-24T12:34:00.192Z,11.24
2018-03-24T12:35:09.027Z,11.29
2018-03-24T12:36:18.139Z,11.32
2018-03-24T12:37:26.979Z,11.25
2018-03-24T12:38:35.813Z,11.21
2018-03-24T12:39:44.902Z,11.25
2018-03-24T12:40:53.737Z,11.17
2018-03-24T12:42:02.571Z,11.25
2018-03-24T12:43:11.410Z,11.22
2018-03-24T12:44:20.239Z,11.19
2018-03-24T12:45:29.375Z,11.09
2018-03-24T12:46:38.311Z,11.04
2018-03-24T12:47:47.146Z,11.09
2018-03-24T12:48:55.983Z,11.15
2018-03-24T12:50:04.821Z,11.11
2018-03-24T12:51:13.760Z,11.11
2018-03-24T12:52:22.595Z,11.19
2018-03-24T12:53:31.435Z,11.27
2018-03-24T12:54:40.266Z,11.19
2018-03-24T12:55:49.377Z,11.22
2018-03-24T12:56:58.463Z,11.25
2018-03-24T12:58:07.299Z,11.24
2018-03-24T12:59:16.136Z,11.28
2018-03-24T13:00:25.299Z,11.39
2018-03-24T13:01:34.362Z,11.46
2018-03-24T13:02:43.250Z,11.42
2018-03-24T13:03:52.087Z,11.47
2018-03-24T13:05:00.922Z,11.44
2018-03-24T13:06:09.758Z,11.44
2018-03-24T13:07:18.596Z,11.46
2018-03-24T13:08:27.710Z,11.35
2018-03-24T13:09:36.552Z,11.33
2018-03-24T13:10:45.390Z,11.36
2018-03-24T13:11:54.226Z,11.4
2018-03-24T13:13:03.065Z,11.43
2018-03-24T13:14:12.560Z,11.54
2018-03-24T13:15:21.445Z,11.47
2018-03-24T13:16:30.236Z,11.54
2018-03-24T13:17:39.075Z,11.47
2018-03-24T13:18:48.192Z,11.57
2018-03-24T13:19:57.080Z,11.47
2018-03-24T13:21:05.917Z,11.33
2018-03-24T13:22:14.752Z,11.35
2018-03-24T13:23:23.592Z,11.32
2018-03-24T13:24:32.708Z,11.46
2018-03-24T13:25:41.598Z,11.27
2018-03-24T13:26:50.436Z,11.29
2018-03-24T13:27:59.272Z,11.27
2018-03-24T13:29:08.107Z,11.24
2018-03-24T13:30:17.229Z,11.29
2018-03-24T13:31:26.812Z,11.27
2018-03-24T13:32:35.651Z,11.14
2018-03-24T13:33:44.485Z,11.35
2018-03-24T13:34:53.325Z,11.22
2018-03-24T13:36:02.159Z,11.19
2018-03-24T13:37:11.095Z,11.14
2018-03-24T13:38:19.931Z,11.07
2018-03-24T13:39:28.767Z,11.1
2018-03-24T13:40:37.609Z,11
2018-03-24T13:41:46.723Z,11.14
2018-03-24T13:42:55.839Z,11.17
2018-03-24T13:44:04.950Z,11.09
2018-03-24T13:45:13.786Z,11.02
2018-03-24T13:46:22.624Z,11.19
2018-03-24T13:47:31.461Z,11.09
2018-03-24T13:48:40.296Z,11.18
2018-03-24T13:49:49.131Z,11.15
2018-03-24T13:50:57.970Z,11.17
2018-03-24T13:52:06.805Z,11.06
2018-03-24T13:53:15.646Z,11.14
2018-03-24T13:54:24.784Z,11.09
2018-03-24T13:55:34.186Z,11.14
2018-03-24T13:56:43.022Z,11.19
2018-03-24T13:57:52.136Z,11.09
2018-03-24T13:59:00.970Z,11.25
2018-03-24T14:00:10.182Z,11.1
2018-03-24T14:01:19.019Z,11.27
2018-03-24T14:02:27.850Z,11.24
2018-03-24T14:03:36.685Z,11.24
2018-03-24T14:04:45.519Z,11.07
2018-03-24T14:05:54.407Z,11.21
2018-03-24T14:07:03.245Z,11.07
2018-03-24T14:08:12.081Z,11.18
2018-03-24T14:09:20.917Z,11.07
2018-03-24T14:10:29.754Z,11.04
2018-03-24T14:11:38.692Z,11
2018-03-24T14:12:47.529Z,11
2018-03-24T14:13:56.366Z,11.03
2018-03-24T14:15:05.200Z,10.97
2018-03-24T14:16:14.037Z,11.02
2018-03-24T14:17:22.924Z,10.96
2018-03-24T14:18:31.761Z,11.18
2018-03-24T14:19:40.598Z,11.1
2018-03-24T14:20:49.432Z,11.07
2018-03-24T14:21:58.548Z,11.04
2018-03-24T14:23:07.779Z,11.15
2018-03-24T14:24:16.615Z,11.18
2018-03-24T14:25:25.450Z,11.09
2018-03-24T14:26:34.287Z,11.09
2018-03-24T14:27:43.128Z,11.14
2018-03-24T14:28:52.258Z,11.18
2018-03-24T14:30:01.097Z,11.14
2018-03-24T14:31:09.935Z,11.19
2018-03-24T14:32:18.773Z,11.09
2018-03-24T14:33:27.605Z,11.17
2018-03-24T14:34:36.868Z,11.19
2018-03-24T14:35:45.702Z,11.25
2018-03-24T14:36:54.538Z,11.19
2018-03-24T14:38:03.376Z,11.22
2018-03-24T14:39:12.217Z,11.22
2018-03-24T14:40:21.059Z,11.22
2018-03-24T14:41:29.896Z,11.22
2018-03-24T14:42:38.732Z,11.24
2018-03-24T14:43:47.565Z,11.21
2018-03-24T14:44:56.403Z,11.21
2018-03-24T14:46:05.235Z,11.22
2018-03-24T14:47:14.072Z,11.21
2018-03-24T14:48:22.910Z,11.22
2018-03-24T14:49:31.745Z,11.21
2018-03-24T14:50:40.582Z,11.21
2018-03-24T14:51:49.518Z,11.28
2018-03-24T14:52:58.630Z,11.22
2018-03-24T14:54:07.468Z,11.22
2018-03-24T14:55:16.578Z,11.14
2018-03-24T14:56:25.419Z,11.15
2018-03-24T14:57:34.252Z,11.19
2018-03-24T14:58:43.086Z,11.09
2018-03-24T14:59:51.922Z,10.94
2018-03-24T15:01:00.759Z,11.02
2018-03-24T15:02:09.595Z,11.1
2018-03-24T15:03:18.706Z,11.04
2018-03-24T15:04:27.541Z,11.15
2018-03-24T15:05:36.380Z,11.11
2018-03-24T15:06:45.216Z,11.04
2018-03-24T15:07:54.053Z,11.11
2018-03-24T15:09:02.990Z,11.14
2018-03-24T15:10:12.385Z,11.14